Jennings, LA

3:10 PM CDT on July 21, 2017 (GMT -0500)
Jennings | | Change Station

Elev 23 ft 30.24 °N, 92.67 °W | Updated 15 minutes ago

Scattered Clouds
Scattered Clouds
93 °F
Feels Like 104 °F
N
0
Wind Variable Wind from North

Today
High -- | Low -- °F
--% Chance of Precip.
Yesterday
High -- | Low -- °F
Precip. -- in
Pressure 30.00 in
Visibility 10.0 miles
Clouds Scattered Clouds 4200 ft
Scattered Clouds 5000 ft
Scattered Clouds 7000 ft
Heat Index 104 °F
Dew Point 75 °F
Humidity 56%
Rainfall 0.00 in
Snow Depth Not available.
6:22 AM 8:11 PM
Waning Crescent, 4% visible
METAR K3R7 211955Z AUTO 00000KT 10SM SCT042 SCT050 SCT070 34/24 A3000 RMK AO2 T03370237
Pressure 30.00 in
Visibility 10.0 miles
Clouds Scattered Clouds 4200 ft
Scattered Clouds 5000 ft
Scattered Clouds 7000 ft
Heat Index 104 °F
Dew Point 75 °F
Humidity 56%
Rainfall 0.00 in
Snow Depth Not available.
6:22 AM 8:11 PM
Waning Crescent, 4% visible
METAR K3R7 211955Z AUTO 00000KT 10SM SCT042 SCT050 SCT070 34/24 A3000 RMK AO2 T03370237

Get Severe Weather Alerts

Thanks for signing up!

Be on the lookout for a verification email in your inbox.

You'll start receiving the daily forecast at 6 AM.

×

10-Day Weather Forecast

Almanac

Astronomy

Jul. 21, 2017 Rise Set
Actual Time
Civil Twilight
Nautical Twilight
Astronomical Twilight
Moon
Length of Visible Light
Length of Day
Tomorrow will be .
, % of the Moon is Illuminated

Today's Extremes

State Highs State Lows

Community

WunderPhotos

Category 6

Welcome to Category 6. This is the collective home for Weather Underground's featured writeups by Dr. Jeff Masters (right), Bob Henson (left), Chris Burt, and other regular contributors.

Nearby

Air Quality

  Air Quality AQ Index Pollutant
Not available.

Snow Depth

Station Depth Elevation

Earthquake Activity

City Distance Mag. Time & Date
Minimum magnitude displayed is 2.5.

Coastal Water Temperatures

Place Temperature

Stations

Nearby Weather Stations

Station Location Temp. Windchill Dew Point Humidity Wind Precip. Elev Updated Type
                   

Watches & Warnings

There are currently no watches in effect.